Time,TemperatureF,DewpointF,PressureIn,WindDirection,WindDirectionDegrees,WindSpeedMPH,WindSpeedGustMPH,Humidity,HourlyPrecipIn,Conditions,Clouds,dailyrainin,SoftwareType,DateUTC
2013-09-25 00:09:00,50.3,50.0,29.85,SE,136,0.0,2.0,97,0.02,,,0.01,weatherlink.com 1.10,2013-09-25 07:09:00,
2013-09-25 00:24:00,50.3,50.0,29.85,SW,218,0.0,1.0,97,0.03,,,0.02,weatherlink.com 1.10,2013-09-25 07:24:00,
2013-09-25 00:40:00,50.3,50.0,29.85,SW,218,0.0,1.0,97,0.02,,,0.02,weatherlink.com 1.10,2013-09-25 07:40:00,
2013-09-25 00:55:00,50.2,49.0,29.85,SW,218,0.0,0.0,97,0.03,,,0.03,weatherlink.com 1.10,2013-09-25 07:55:00,
2013-09-25 01:10:00,50.2,49.0,29.85,SW,219,0.0,1.0,97,0.02,,,0.03,weatherlink.com 1.10,2013-09-25 08:10:00,
2013-09-25 01:25:00,50.2,49.0,29.85,SW,232,0.0,1.0,97,0.01,,,0.03,weatherlink.com 1.10,2013-09-25 08:25:00,
2013-09-25 01:40:00,50.1,49.0,29.85,SW,233,0.0,1.0,97,0.01,,,0.03,weatherlink.com 1.10,2013-09-25 08:40:00,
2013-09-25 01:55:00,50.0,49.0,29.85,West,266,0.0,1.0,97,0.00,,,0.03,weatherlink.com 1.10,2013-09-25 08:55:00,
2013-09-25 02:10:00,49.9,49.0,29.85,West,266,0.0,1.0,98,0.00,,,0.03,weatherlink.com 1.10,2013-09-25 09:10:00,
2013-09-25 02:25:00,49.8,49.0,29.85,West,267,0.0,1.0,98,0.00,,,0.03,weatherlink.com 1.10,2013-09-25 09:25:00,
2013-09-25 02:40:00,49.7,49.0,29.85,West,264,1.0,1.0,98,0.01,,,0.04,weatherlink.com 1.10,2013-09-25 09:40:00,
2013-09-25 02:55:00,49.6,49.0,29.85,West,263,0.0,1.0,98,0.01,,,0.04,weatherlink.com 1.10,2013-09-25 09:55:00,
2013-09-25 03:10:00,49.5,49.0,29.85,WSW,248,1.0,1.0,98,0.01,,,0.04,weatherlink.com 1.10,2013-09-25 10:10:00,
2013-09-25 03:25:00,49.3,49.0,29.85,WSW,243,0.0,1.0,98,0.01,,,0.04,weatherlink.com 1.10,2013-09-25 10:25:00,
2013-09-25 03:40:00,49.2,49.0,29.85,WSW,243,0.0,1.0,98,0.00,,,0.04,weatherlink.com 1.10,2013-09-25 10:40:00,
2013-09-25 03:55:00,49.1,49.0,29.86,West,271,1.0,2.0,98,0.00,,,0.04,weatherlink.com 1.10,2013-09-25 10:55:00,
2013-09-25 04:10:00,49.2,49.0,29.86,WSW,246,0.0,2.0,98,0.00,,,0.04,weatherlink.com 1.10,2013-09-25 11:10:00,
2013-09-25 04:25:00,49.2,49.0,29.86,NNE,30,1.0,3.0,98,0.00,,,0.04,weatherlink.com 1.10,2013-09-25 11:25:00,
2013-09-25 04:40:00,49.7,49.0,29.86,WNW,289,1.0,6.0,98,0.01,,,0.05,weatherlink.com 1.10,2013-09-25 11:40:00,
2013-09-25 04:55:00,49.8,49.0,29.86,NW,319,1.0,3.0,97,0.01,,,0.05,weatherlink.com 1.10,2013-09-25 11:55:00,
2013-09-25 05:10:00,49.8,49.0,29.86,NNW,330,1.0,4.0,97,0.01,,,0.05,weatherlink.com 1.10,2013-09-25 12:10:00,
2013-09-25 05:25:00,50.0,49.0,29.86,NW,316,0.0,5.0,97,0.01,,,0.05,weatherlink.com 1.10,2013-09-25 12:25:00,
2013-09-25 05:40:00,50.1,49.0,29.86,North,9,2.0,6.0,96,0.01,,,0.06,weatherlink.com 1.10,2013-09-25 12:40:00,
2013-09-25 05:55:00,50.1,49.0,29.87,NNE,13,5.0,6.0,96,0.01,,,0.06,weatherlink.com 1.10,2013-09-25 12:55:00,
2013-09-25 06:10:00,50.1,49.0,29.87,NE,36,2.0,5.0,96,0.01,,,0.06,weatherlink.com 1.10,2013-09-25 13:10:00,
2013-09-25 06:25:00,50.2,49.0,29.87,NE,34,5.0,6.0,96,0.02,,,0.07,weatherlink.com 1.10,2013-09-25 13:25:00,
2013-09-25 06:40:00,50.1,49.0,29.88,NNW,344,2.0,8.0,96,0.01,,,0.07,weatherlink.com 1.10,2013-09-25 13:40:00,
2013-09-25 06:55:00,50.4,49.0,29.88,NNE,12,5.0,7.0,95,0.01,,,0.07,weatherlink.com 1.10,2013-09-25 13:55:00,
2013-09-25 07:10:00,50.4,49.0,29.89,WNW,298,0.0,8.0,96,0.01,,,0.07,weatherlink.com 1.10,2013-09-25 14:10:00,
2013-09-25 07:25:00,50.4,49.0,29.89,NW,319,2.0,6.0,95,0.00,,,0.07,weatherlink.com 1.10,2013-09-25 14:25:00,
2013-09-25 07:40:00,50.5,49.0,29.89,North,349,6.0,6.0,95,0.00,,,0.07,weatherlink.com 1.10,2013-09-25 14:40:00,
2013-09-25 07:55:00,50.8,49.0,29.89,NNE,27,4.0,8.0,94,0.00,,,0.07,weatherlink.com 1.10,2013-09-25 14:55:00,
2013-09-25 08:10:00,51.0,49.0,29.90,NNW,337,3.0,6.0,94,0.00,,,0.07,weatherlink.com 1.10,2013-09-25 15:10:00,
2013-09-25 08:25:00,51.2,50.0,29.90,NNE,20,5.0,6.0,94,0.00,,,0.07,weatherlink.com 1.10,2013-09-25 15:25:00,
2013-09-25 08:40:00,51.6,50.0,29.90,NNW,347,3.0,8.0,93,0.00,,,0.07,weatherlink.com 1.10,2013-09-25 15:40:00,
2013-09-25 08:55:00,52.4,50.0,29.91,NW,316,7.0,11.0,91,0.00,,,0.07,weatherlink.com 1.10,2013-09-25 15:55:00,
2013-09-25 09:11:00,52.2,49.0,29.91,NNE,26,10.0,10.0,90,0.00,,,0.07,weatherlink.com 1.10,2013-09-25 16:11:00,
2013-09-25 09:26:00,52.0,50.0,29.92,NNW,344,5.0,10.0,91,0.00,,,0.07,weatherlink.com 1.10,2013-09-25 16:26:00,
2013-09-25 09:41:00,52.0,49.0,29.92,NNE,27,8.0,12.0,90,0.00,,,0.07,weatherlink.com 1.10,2013-09-25 16:41:00,
2013-09-25 09:56:00,52.2,49.0,29.92,NNW,335,5.0,12.0,90,0.00,,,0.07,weatherlink.com 1.10,2013-09-25 16:56:00,
2013-09-25 10:11:00,52.3,50.0,29.93,North,353,6.0,11.0,91,0.00,,,0.07,weatherlink.com 1.10,2013-09-25 17:11:00,
2013-09-25 10:26:00,52.3,50.0,29.93,NNE,16,9.0,13.0,90,0.00,,,0.07,weatherlink.com 1.10,2013-09-25 17:26:00,
2013-09-25 10:40:00,52.7,50.0,29.93,NE,41,2.0,12.0,90,0.00,,,0.07,weatherlink.com 1.10,2013-09-25 17:40:00,
2013-09-25 10:56:00,53.2,50.0,29.93,NNW,330,13.0,17.0,88,0.00,,,0.07,weatherlink.com 1.10,2013-09-25 17:56:00,
2013-09-25 11:11:00,53.4,49.0,29.93,NNE,19,7.0,13.0,86,0.00,,,0.07,weatherlink.com 1.10,2013-09-25 18:11:00,
2013-09-25 11:26:00,53.7,50.0,29.93,NNE,20,9.0,18.0,86,0.00,,,0.07,weatherlink.com 1.10,2013-09-25 18:26:00,
2013-09-25 11:41:00,53.9,50.0,29.93,NNW,347,9.0,15.0,86,0.00,,,0.07,weatherlink.com 1.10,2013-09-25 18:41:00,
2013-09-25 11:56:00,54.1,50.0,29.93,NNE,18,5.0,15.0,86,0.00,,,0.07,weatherlink.com 1.10,2013-09-25 18:56:00,
2013-09-25 12:11:00,54.0,50.0,29.93,NNW,340,7.0,13.0,85,0.00,,,0.07,weatherlink.com 1.10,2013-09-25 19:11:00,
2013-09-25 12:26:00,54.3,49.0,29.93,NNE,27,11.0,20.0,83,0.00,,,0.07,weatherlink.com 1.10,2013-09-25 19:26:00,
2013-09-25 12:41:00,54.5,49.0,29.93,NNE,16,15.0,19.0,82,0.00,,,0.07,weatherlink.com 1.10,2013-09-25 19:41:00,
2013-09-25 12:56:00,54.9,49.0,29.94,NNE,23,10.0,17.0,81,0.00,,,0.07,weatherlink.com 1.10,2013-09-25 19:56:00,
2013-09-25 13:11:00,55.5,49.0,29.94,NNE,20,12.0,18.0,80,0.00,,,0.07,weatherlink.com 1.10,2013-09-25 20:11:00,
2013-09-25 13:26:00,55.7,49.0,29.94,North,6,9.0,18.0,79,0.00,,,0.07,weatherlink.com 1.10,2013-09-25 20:26:00,
2013-09-25 13:41:00,56.3,49.0,29.94,NNE,13,8.0,16.0,77,0.00,,,0.07,weatherlink.com 1.10,2013-09-25 20:41:00,
2013-09-25 13:56:00,56.6,49.0,29.94,NNE,18,8.0,17.0,76,0.00,,,0.07,weatherlink.com 1.10,2013-09-25 20:56:00,
2013-09-25 14:11:00,57.0,49.0,29.94,NNE,19,5.0,14.0,75,0.00,,,0.07,weatherlink.com 1.10,2013-09-25 21:11:00,
2013-09-25 14:26:00,57.5,49.0,29.94,West,278,3.0,13.0,73,0.00,,,0.07,weatherlink.com 1.10,2013-09-25 21:26:00,
2013-09-25 14:40:00,57.8,49.0,29.94,North,6,9.0,10.0,73,0.00,,,0.07,weatherlink.com 1.10,2013-09-25 21:40:00,
2013-09-25 14:56:00,58.0,49.0,29.95,NNE,25,2.0,9.0,71,0.00,,,0.07,weatherlink.com 1.10,2013-09-25 21:56:00,
2013-09-25 15:11:00,58.1,49.0,29.95,NNE,15,9.0,11.0,72,0.00,,,0.07,weatherlink.com 1.10,2013-09-25 22:11:00,
2013-09-25 15:27:00,58.1,49.0,29.95,NNE,16,7.0,8.0,72,0.00,,,0.07,weatherlink.com 1.10,2013-09-25 22:27:00,
2013-09-25 15:41:00,57.9,49.0,29.95,NE,35,4.0,7.0,72,0.00,,,0.07,weatherlink.com 1.10,2013-09-25 22:41:00,
2013-09-25 15:56:00,58.0,49.0,29.95,NNE,29,5.0,9.0,71,0.00,,,0.07,weatherlink.com 1.10,2013-09-25 22:56:00,
2013-09-25 16:12:00,58.2,49.0,29.95,NNE,29,9.0,9.0,71,0.00,,,0.07,weatherlink.com 1.10,2013-09-25 23:12:00,
2013-09-25 16:27:00,58.1,48.0,29.96,NNE,23,6.0,12.0,70,0.00,,,0.07,weatherlink.com 1.10,2013-09-25 23:27:00,
2013-09-25 16:42:00,58.4,47.0,29.96,NE,41,2.0,6.0,67,0.00,,,0.07,weatherlink.com 1.10,2013-09-25 23:42:00,
2013-09-25 16:57:00,58.9,48.0,29.96,NE,36,4.0,5.0,68,0.00,,,0.07,weatherlink.com 1.10,2013-09-25 23:57:00,
2013-09-25 17:12:00,59.2,49.0,29.96,NNE,29,4.0,5.0,68,0.00,,,0.07,weatherlink.com 1.10,2013-09-26 00:12:00,
2013-09-25 17:27:00,58.8,49.0,29.96,SE,144,5.0,8.0,70,0.00,,,0.07,weatherlink.com 1.10,2013-09-26 00:27:00,
2013-09-25 17:42:00,57.6,50.0,29.97,SSE,157,5.0,7.0,75,0.00,,,0.07,weatherlink.com 1.10,2013-09-26 00:42:00,
2013-09-25 17:57:00,57.2,49.0,29.96,SSE,158,4.0,6.0,75,0.00,,,0.07,weatherlink.com 1.10,2013-09-26 00:57:00,
2013-09-25 18:12:00,56.4,50.0,29.96,SSW,207,1.0,4.0,78,0.00,,,0.07,weatherlink.com 1.10,2013-09-26 01:12:00,
2013-09-25 18:27:00,55.3,51.0,29.97,WSW,250,1.0,1.0,84,0.00,,,0.07,weatherlink.com 1.10,2013-09-26 01:27:00,
2013-09-25 18:42:00,53.9,50.0,29.97,WSW,252,1.0,2.0,86,0.00,,,0.07,weatherlink.com 1.10,2013-09-26 01:42:00,
2013-09-25 18:57:00,52.7,49.0,29.97,West,266,0.0,1.0,88,0.00,,,0.07,weatherlink.com 1.10,2013-09-26 01:57:00,
2013-09-25 19:12:00,51.8,49.0,29.97,WSW,248,2.0,2.0,90,0.00,,,0.07,weatherlink.com 1.10,2013-09-26 02:12:00,
2013-09-25 19:27:00,51.0,49.0,29.98,West,259,0.0,2.0,92,0.00,,,0.07,weatherlink.com 1.10,2013-09-26 02:27:00,
2013-09-25 19:42:00,50.7,48.0,29.98,WSW,255,1.0,1.0,91,0.00,,,0.07,weatherlink.com 1.10,2013-09-26 02:42:00,
2013-09-25 19:57:00,50.0,48.0,29.98,West,262,1.0,2.0,93,0.00,,,0.07,weatherlink.com 1.10,2013-09-26 02:57:00,
2013-09-25 20:12:00,49.6,48.0,29.99,WSW,256,0.0,2.0,94,0.00,,,0.07,weatherlink.com 1.10,2013-09-26 03:12:00,
2013-09-25 20:27:00,49.7,48.0,29.99,West,263,0.0,1.0,94,0.00,,,0.07,weatherlink.com 1.10,2013-09-26 03:27:00,
2013-09-25 20:42:00,49.4,48.0,29.99,WSW,257,1.0,2.0,95,0.00,,,0.07,weatherlink.com 1.10,2013-09-26 03:42:00,
2013-09-25 20:57:00,49.4,48.0,30.00,West,259,1.0,2.0,95,0.00,,,0.07,weatherlink.com 1.10,2013-09-26 03:57:00,
2013-09-25 21:12:00,49.4,48.0,30.00,West,266,0.0,2.0,95,0.00,,,0.07,weatherlink.com 1.10,2013-09-26 04:12:00,
2013-09-25 21:27:00,49.3,48.0,30.00,WSW,255,1.0,2.0,94,0.00,,,0.07,weatherlink.com 1.10,2013-09-26 04:27:00,
2013-09-25 21:42:00,48.8,48.0,30.00,West,264,2.0,2.0,95,0.00,,,0.07,weatherlink.com 1.10,2013-09-26 04:42:00,
2013-09-25 21:57:00,48.6,48.0,30.00,West,267,2.0,2.0,96,0.00,,,0.07,weatherlink.com 1.10,2013-09-26 04:57:00,
2013-09-25 22:12:00,48.1,47.0,30.00,West,260,2.0,2.0,96,0.00,,,0.07,weatherlink.com 1.10,2013-09-26 05:12:00,
2013-09-25 22:27:00,47.7,47.0,30.00,West,263,1.0,2.0,97,0.00,,,0.07,weatherlink.com 1.10,2013-09-26 05:27:00,
2013-09-25 22:42:00,47.5,47.0,30.00,West,266,1.0,2.0,96,0.00,,,0.07,weatherlink.com 1.10,2013-09-26 05:42:00,
2013-09-25 22:57:00,47.2,46.0,30.01,West,262,2.0,2.0,97,0.00,,,0.07,weatherlink.com 1.10,2013-09-26 05:57:00,
2013-09-25 23:12:00,47.3,47.0,30.01,WSW,243,1.0,2.0,97,0.00,,,0.07,weatherlink.com 1.10,2013-09-26 06:12:00,
2013-09-25 23:27:00,47.4,47.0,30.01,West,276,1.0,2.0,98,0.00,,,0.07,weatherlink.com 1.10,2013-09-26 06:27:00,
2013-09-25 23:42:00,47.5,47.0,30.01,WSW,240,1.0,2.0,98,0.00,,,0.07,weatherlink.com 1.10,2013-09-26 06:42:00,
2013-09-25 23:57:00,46.9,46.0,30.02,West,277,2.0,2.0,97,0.00,,,0.07,weatherlink.com 1.10,2013-09-26 06:57:00,